sensor_id;sensor_type;location;lat;lon;timestamp;P1;durP1;ratioP1;P2;durP2;ratioP2
65206;SDS011;58477;48.072;11.970;2023-03-21T00:00:28;5.13;;;3.80;;
65206;SDS011;58477;48.072;11.970;2023-03-21T00:02:53;5.10;;;3.17;;
65206;SDS011;58477;48.072;11.970;2023-03-21T00:05:18;4.10;;;3.60;;
65206;SDS011;58477;48.072;11.970;2023-03-21T00:07:45;4.00;;;3.42;;
65206;SDS011;58477;48.072;11.970;2023-03-21T00:10:11;5.13;;;3.83;;
65206;SDS011;58477;48.072;11.970;2023-03-21T00:12:36;9.35;;;4.85;;
65206;SDS011;58477;48.072;11.970;2023-03-21T00:15:06;4.28;;;3.47;;
65206;SDS011;58477;48.072;11.970;2023-03-21T00:17:32;4.60;;;3.72;;
65206;SDS011;58477;48.072;11.970;2023-03-21T00:19:58;7.32;;;3.53;;
65206;SDS011;58477;48.072;11.970;2023-03-21T00:22:24;5.30;;;4.03;;
65206;SDS011;58477;48.072;11.970;2023-03-21T00:24:52;4.20;;;3.70;;
65206;SDS011;58477;48.072;11.970;2023-03-21T00:27:17;5.28;;;3.75;;
65206;SDS011;58477;48.072;11.970;2023-03-21T00:29:46;4.20;;;3.38;;
65206;SDS011;58477;48.072;11.970;2023-03-21T00:32:16;3.80;;;3.00;;
65206;SDS011;58477;48.072;11.970;2023-03-21T00:34:46;3.63;;;3.05;;
65206;SDS011;58477;48.072;11.970;2023-03-21T00:37:14;6.40;;;3.40;;
65206;SDS011;58477;48.072;11.970;2023-03-21T00:39:42;7.32;;;3.22;;
65206;SDS011;58477;48.072;11.970;2023-03-21T00:42:12;4.20;;;3.20;;
65206;SDS011;58477;48.072;11.970;2023-03-21T00:44:38;4.13;;;3.13;;
65206;SDS011;58477;48.072;11.970;2023-03-21T00:47:04;3.30;;;3.00;;
65206;SDS011;58477;48.072;11.970;2023-03-21T00:49:32;3.65;;;2.70;;
65206;SDS011;58477;48.072;11.970;2023-03-21T00:52:00;6.40;;;3.10;;
65206;SDS011;58477;48.072;11.970;2023-03-21T00:54:27;4.63;;;3.17;;
65206;SDS011;58477;48.072;11.970;2023-03-21T00:56:52;6.40;;;3.42;;
65206;SDS011;58477;48.072;11.970;2023-03-21T00:59:18;4.57;;;3.05;;
65206;SDS011;58477;48.072;11.970;2023-03-21T01:01:44;6.05;;;3.05;;
65206;SDS011;58477;48.072;11.970;2023-03-21T01:04:10;4.38;;;2.90;;
65206;SDS011;58477;48.072;11.970;2023-03-21T01:06:38;5.53;;;2.95;;
65206;SDS011;58477;48.072;11.970;2023-03-21T01:09:06;3.75;;;3.00;;
65206;SDS011;58477;48.072;11.970;2023-03-21T01:11:36;3.20;;;2.90;;
65206;SDS011;58477;48.072;11.970;2023-03-21T01:14:02;7.63;;;3.70;;
65206;SDS011;58477;48.072;11.970;2023-03-21T01:16:27;4.30;;;3.15;;
65206;SDS011;58477;48.072;11.970;2023-03-21T01:18:53;3.55;;;2.53;;
65206;SDS011;58477;48.072;11.970;2023-03-21T01:21:18;5.82;;;3.05;;
65206;SDS011;58477;48.072;11.970;2023-03-21T01:23:44;3.47;;;2.78;;
65206;SDS011;58477;48.072;11.970;2023-03-21T01:26:10;3.97;;;3.05;;
65206;SDS011;58477;48.072;11.970;2023-03-21T01:28:37;3.85;;;2.70;;
65206;SDS011;58477;48.072;11.970;2023-03-21T01:31:04;5.55;;;3.03;;
65206;SDS011;58477;48.072;11.970;2023-03-21T01:33:31;4.72;;;2.90;;
65206;SDS011;58477;48.072;11.970;2023-03-21T01:35:57;4.45;;;3.15;;
65206;SDS011;58477;48.072;11.970;2023-03-21T01:38:26;7.70;;;3.10;;
65206;SDS011;58477;48.072;11.970;2023-03-21T01:40:52;3.25;;;2.95;;
65206;SDS011;58477;48.072;11.970;2023-03-21T01:43:24;4.03;;;3.00;;
65206;SDS011;58477;48.072;11.970;2023-03-21T01:49:10;3.53;;;2.90;;
65206;SDS011;58477;48.072;11.970;2023-03-21T01:51:57;3.30;;;3.00;;
65206;SDS011;58477;48.072;11.970;2023-03-21T01:54:27;3.60;;;3.25;;
65206;SDS011;58477;48.072;11.970;2023-03-21T01:56:56;4.25;;;3.85;;
65206;SDS011;58477;48.072;11.970;2023-03-21T01:59:30;4.25;;;3.40;;
65206;SDS011;58477;48.072;11.970;2023-03-21T02:02:13;4.13;;;3.10;;
65206;SDS011;58477;48.072;11.970;2023-03-21T02:04:57;4.30;;;3.35;;
65206;SDS011;58477;48.072;11.970;2023-03-21T02:07:32;5.03;;;3.50;;
65206;SDS011;58477;48.072;11.970;2023-03-21T02:10:07;3.95;;;3.45;;
65206;SDS011;58477;48.072;11.970;2023-03-21T02:12:35;3.53;;;3.20;;
65206;SDS011;58477;48.072;11.970;2023-03-21T02:15:02;3.72;;;3.03;;
65206;SDS011;58477;48.072;11.970;2023-03-21T02:17:46;3.30;;;3.03;;
65206;SDS011;58477;48.072;11.970;2023-03-21T02:20:29;3.15;;;2.85;;
65206;SDS011;58477;48.072;11.970;2023-03-21T02:26:47;3.67;;;3.33;;
65206;SDS011;58477;48.072;11.970;2023-03-21T02:35:21;4.13;;;3.00;;
65206;SDS011;58477;48.072;11.970;2023-03-21T02:38:09;4.10;;;3.05;;
65206;SDS011;58477;48.072;11.970;2023-03-21T02:46:04;3.92;;;3.15;;
65206;SDS011;58477;48.072;11.970;2023-03-21T02:48:37;6.43;;;3.15;;
65206;SDS011;58477;48.072;11.970;2023-03-21T02:51:05;2.75;;;2.55;;
65206;SDS011;58477;48.072;11.970;2023-03-21T02:53:38;5.60;;;3.25;;
65206;SDS011;58477;48.072;11.970;2023-03-21T02:56:07;2.92;;;2.72;;
65206;SDS011;58477;48.072;11.970;2023-03-21T02:58:36;3.45;;;2.78;;
65206;SDS011;58477;48.072;11.970;2023-03-21T03:01:04;4.00;;;3.00;;
65206;SDS011;58477;48.072;11.970;2023-03-21T03:03:37;3.83;;;3.15;;
65206;SDS011;58477;48.072;11.970;2023-03-21T03:06:08;3.92;;;2.97;;
65206;SDS011;58477;48.072;11.970;2023-03-21T03:08:51;3.33;;;3.00;;
65206;SDS011;58477;48.072;11.970;2023-03-21T03:11:33;4.32;;;3.25;;
65206;SDS011;58477;48.072;11.970;2023-03-21T03:16:48;3.85;;;3.13;;
65206;SDS011;58477;48.072;11.970;2023-03-21T03:19:47;7.90;;;3.83;;
65206;SDS011;58477;48.072;11.970;2023-03-21T03:22:41;3.60;;;3.13;;
65206;SDS011;58477;48.072;11.970;2023-03-21T03:25:13;5.95;;;3.15;;
65206;SDS011;58477;48.072;11.970;2023-03-21T03:30:11;9.95;;;3.45;;
65206;SDS011;58477;48.072;11.970;2023-03-21T03:32:41;3.28;;;2.97;;
65206;SDS011;58477;48.072;11.970;2023-03-21T03:35:12;4.65;;;3.38;;
65206;SDS011;58477;48.072;11.970;2023-03-21T03:37:41;5.57;;;3.30;;
65206;SDS011;58477;48.072;11.970;2023-03-21T03:40:15;4.60;;;3.30;;
65206;SDS011;58477;48.072;11.970;2023-03-21T03:43:15;4.13;;;3.60;;
65206;SDS011;58477;48.072;11.970;2023-03-21T03:45:50;3.80;;;3.40;;
65206;SDS011;58477;48.072;11.970;2023-03-21T03:53:22;3.25;;;2.90;;
65206;SDS011;58477;48.072;11.970;2023-03-21T03:55:53;7.40;;;3.20;;
65206;SDS011;58477;48.072;11.970;2023-03-21T03:58:21;3.47;;;3.17;;
65206;SDS011;58477;48.072;11.970;2023-03-21T04:00:47;5.90;;;3.55;;
65206;SDS011;58477;48.072;11.970;2023-03-21T04:03:13;4.43;;;3.47;;
65206;SDS011;58477;48.072;11.970;2023-03-21T04:05:39;7.82;;;3.67;;
65206;SDS011;58477;48.072;11.970;2023-03-21T04:08:07;4.88;;;3.28;;
65206;SDS011;58477;48.072;11.970;2023-03-21T04:10:39;7.03;;;3.65;;
65206;SDS011;58477;48.072;11.970;2023-03-21T04:13:08;5.07;;;3.78;;
65206;SDS011;58477;48.072;11.970;2023-03-21T04:16:03;3.80;;;3.40;;
65206;SDS011;58477;48.072;11.970;2023-03-21T04:18:29;4.32;;;3.92;;
65206;SDS011;58477;48.072;11.970;2023-03-21T04:20:56;4.68;;;3.30;;
65206;SDS011;58477;48.072;11.970;2023-03-21T04:23:22;3.90;;;3.50;;
65206;SDS011;58477;48.072;11.970;2023-03-21T04:25:48;3.50;;;3.20;;
65206;SDS011;58477;48.072;11.970;2023-03-21T04:28:15;4.60;;;3.40;;
65206;SDS011;58477;48.072;11.970;2023-03-21T04:30:56;8.40;;;3.63;;
65206;SDS011;58477;48.072;11.970;2023-03-21T04:33:22;6.53;;;3.67;;
65206;SDS011;58477;48.072;11.970;2023-03-21T04:35:53;5.65;;;3.35;;
65206;SDS011;58477;48.072;11.970;2023-03-21T04:38:25;4.82;;;3.70;;
65206;SDS011;58477;48.072;11.970;2023-03-21T04:40:56;4.25;;;3.40;;
65206;SDS011;58477;48.072;11.970;2023-03-21T04:43:22;4.55;;;3.65;;
65206;SDS011;58477;48.072;11.970;2023-03-21T04:45:48;4.50;;;3.70;;
65206;SDS011;58477;48.072;11.970;2023-03-21T04:48:14;6.95;;;4.00;;
65206;SDS011;58477;48.072;11.970;2023-03-21T04:50:43;5.85;;;3.50;;
65206;SDS011;58477;48.072;11.970;2023-03-21T04:53:09;6.30;;;3.65;;
65206;SDS011;58477;48.072;11.970;2023-03-21T04:55:35;4.03;;;3.60;;
65206;SDS011;58477;48.072;11.970;2023-03-21T04:58:01;4.25;;;3.40;;
65206;SDS011;58477;48.072;11.970;2023-03-21T05:00:31;3.78;;;3.47;;
65206;SDS011;58477;48.072;11.970;2023-03-21T05:03:02;6.18;;;3.83;;
65206;SDS011;58477;48.072;11.970;2023-03-21T05:05:29;5.32;;;3.72;;
65206;SDS011;58477;48.072;11.970;2023-03-21T05:07:56;4.25;;;3.63;;
65206;SDS011;58477;48.072;11.970;2023-03-21T05:10:22;5.90;;;3.50;;
65206;SDS011;58477;48.072;11.970;2023-03-21T05:12:47;4.70;;;3.60;;
65206;SDS011;58477;48.072;11.970;2023-03-21T05:15:13;6.90;;;3.67;;
65206;SDS011;58477;48.072;11.970;2023-03-21T05:17:38;9.30;;;4.05;;
65206;SDS011;58477;48.072;11.970;2023-03-21T05:20:08;4.57;;;3.70;;
65206;SDS011;58477;48.072;11.970;2023-03-21T05:22:35;5.90;;;4.40;;
65206;SDS011;58477;48.072;11.970;2023-03-21T05:25:07;4.00;;;3.60;;
65206;SDS011;58477;48.072;11.970;2023-03-21T05:27:56;4.20;;;3.42;;
65206;SDS011;58477;48.072;11.970;2023-03-21T05:30:25;6.28;;;3.95;;
65206;SDS011;58477;48.072;11.970;2023-03-21T05:32:55;6.03;;;4.43;;
65206;SDS011;58477;48.072;11.970;2023-03-21T05:35:22;6.63;;;4.50;;
65206;SDS011;58477;48.072;11.970;2023-03-21T05:37:47;6.22;;;4.53;;
65206;SDS011;58477;48.072;11.970;2023-03-21T05:40:13;6.57;;;4.20;;
65206;SDS011;58477;48.072;11.970;2023-03-21T05:42:42;9.15;;;4.75;;
65206;SDS011;58477;48.072;11.970;2023-03-21T05:45:16;6.32;;;4.47;;
65206;SDS011;58477;48.072;11.970;2023-03-21T05:47:41;7.68;;;4.50;;
65206;SDS011;58477;48.072;11.970;2023-03-21T05:50:09;6.43;;;4.28;;
65206;SDS011;58477;48.072;11.970;2023-03-21T05:52:36;5.80;;;5.15;;
65206;SDS011;58477;48.072;11.970;2023-03-21T05:55:08;5.68;;;4.70;;
65206;SDS011;58477;48.072;11.970;2023-03-21T05:57:35;7.70;;;4.50;;
65206;SDS011;58477;48.072;11.970;2023-03-21T06:00:06;5.72;;;4.47;;
65206;SDS011;58477;48.072;11.970;2023-03-21T06:02:41;7.57;;;4.43;;
65206;SDS011;58477;48.072;11.970;2023-03-21T06:05:24;5.03;;;4.40;;
65206;SDS011;58477;48.072;11.970;2023-03-21T06:07:50;8.43;;;5.75;;
65206;SDS011;58477;48.072;11.970;2023-03-21T06:10:15;5.53;;;4.95;;
65206;SDS011;58477;48.072;11.970;2023-03-21T06:12:44;6.13;;;4.68;;
65206;SDS011;58477;48.072;11.970;2023-03-21T06:15:28;6.53;;;4.13;;
65206;SDS011;58477;48.072;11.970;2023-03-21T06:18:02;8.88;;;4.18;;
65206;SDS011;58477;48.072;11.970;2023-03-21T06:20:28;4.95;;;4.20;;
65206;SDS011;58477;48.072;11.970;2023-03-21T06:23:00;4.70;;;3.95;;
65206;SDS011;58477;48.072;11.970;2023-03-21T06:25:27;7.22;;;4.30;;
65206;SDS011;58477;48.072;11.970;2023-03-21T06:27:53;5.03;;;4.00;;
65206;SDS011;58477;48.072;11.970;2023-03-21T06:30:18;3.88;;;3.55;;
65206;SDS011;58477;48.072;11.970;2023-03-21T06:32:58;5.35;;;4.07;;
65206;SDS011;58477;48.072;11.970;2023-03-21T06:35:24;5.95;;;4.03;;
65206;SDS011;58477;48.072;11.970;2023-03-21T06:37:50;5.32;;;3.90;;
65206;SDS011;58477;48.072;11.970;2023-03-21T06:40:17;4.68;;;3.80;;
65206;SDS011;58477;48.072;11.970;2023-03-21T06:42:44;7.97;;;4.38;;
65206;SDS011;58477;48.072;11.970;2023-03-21T06:45:10;4.15;;;3.65;;
65206;SDS011;58477;48.072;11.970;2023-03-21T06:47:35;7.15;;;3.95;;
65206;SDS011;58477;48.072;11.970;2023-03-21T06:50:04;7.65;;;4.03;;
65206;SDS011;58477;48.072;11.970;2023-03-21T06:55:02;4.97;;;3.58;;
65206;SDS011;58477;48.072;11.970;2023-03-21T06:57:29;4.20;;;3.80;;
65206;SDS011;58477;48.072;11.970;2023-03-21T06:59:55;3.80;;;3.35;;
65206;SDS011;58477;48.072;11.970;2023-03-21T07:02:22;4.60;;;3.60;;
65206;SDS011;58477;48.072;11.970;2023-03-21T07:05:14;5.20;;;3.75;;
65206;SDS011;58477;48.072;11.970;2023-03-21T07:07:40;5.57;;;3.42;;
65206;SDS011;58477;48.072;11.970;2023-03-21T07:10:08;5.03;;;3.60;;
65206;SDS011;58477;48.072;11.970;2023-03-21T07:12:44;3.30;;;2.90;;
65206;SDS011;58477;48.072;11.970;2023-03-21T07:15:19;4.13;;;3.50;;
65206;SDS011;58477;48.072;11.970;2023-03-21T07:17:45;4.25;;;3.65;;
65206;SDS011;58477;48.072;11.970;2023-03-21T07:20:11;3.78;;;3.13;;
65206;SDS011;58477;48.072;11.970;2023-03-21T07:22:37;4.15;;;3.70;;
65206;SDS011;58477;48.072;11.970;2023-03-21T07:25:03;6.57;;;3.53;;
65206;SDS011;58477;48.072;11.970;2023-03-21T07:27:29;4.45;;;3.85;;
65206;SDS011;58477;48.072;11.970;2023-03-21T07:29:55;6.20;;;4.10;;
65206;SDS011;58477;48.072;11.970;2023-03-21T07:32:20;3.67;;;3.38;;
65206;SDS011;58477;48.072;11.970;2023-03-21T07:34:48;6.35;;;3.42;;
65206;SDS011;58477;48.072;11.970;2023-03-21T07:37:13;7.25;;;3.15;;
65206;SDS011;58477;48.072;11.970;2023-03-21T07:39:40;5.22;;;3.17;;
65206;SDS011;58477;48.072;11.970;2023-03-21T07:42:07;4.10;;;2.80;;
65206;SDS011;58477;48.072;11.970;2023-03-21T07:44:36;5.78;;;3.22;;
65206;SDS011;58477;48.072;11.970;2023-03-21T07:47:02;8.55;;;2.80;;
65206;SDS011;58477;48.072;11.970;2023-03-21T07:49:31;6.15;;;3.28;;
65206;SDS011;58477;48.072;11.970;2023-03-21T07:51:57;6.78;;;2.85;;
65206;SDS011;58477;48.072;11.970;2023-03-21T07:54:23;5.60;;;2.90;;
65206;SDS011;58477;48.072;11.970;2023-03-21T07:56:49;6.18;;;2.80;;
65206;SDS011;58477;48.072;11.970;2023-03-21T07:59:15;7.65;;;3.08;;
65206;SDS011;58477;48.072;11.970;2023-03-21T08:01:40;4.10;;;3.10;;
65206;SDS011;58477;48.072;11.970;2023-03-21T08:04:05;3.40;;;2.75;;
65206;SDS011;58477;48.072;11.970;2023-03-21T08:06:32;11.25;;;3.00;;
65206;SDS011;58477;48.072;11.970;2023-03-21T08:08:57;3.13;;;2.80;;
65206;SDS011;58477;48.072;11.970;2023-03-21T08:11:23;6.35;;;3.13;;
65206;SDS011;58477;48.072;11.970;2023-03-21T08:13:49;3.63;;;2.97;;
65206;SDS011;58477;48.072;11.970;2023-03-21T08:16:15;4.90;;;2.88;;
65206;SDS011;58477;48.072;11.970;2023-03-21T08:18:41;3.28;;;2.97;;
65206;SDS011;58477;48.072;11.970;2023-03-21T08:21:07;6.00;;;3.35;;
65206;SDS011;58477;48.072;11.970;2023-03-21T08:23:32;3.72;;;3.33;;
65206;SDS011;58477;48.072;11.970;2023-03-21T08:25:58;4.55;;;3.70;;
65206;SDS011;58477;48.072;11.970;2023-03-21T08:28:23;3.55;;;3.15;;
65206;SDS011;58477;48.072;11.970;2023-03-21T08:30:49;3.45;;;3.00;;
65206;SDS011;58477;48.072;11.970;2023-03-21T08:33:15;3.40;;;3.00;;
65206;SDS011;58477;48.072;11.970;2023-03-21T08:35:42;4.75;;;3.10;;
65206;SDS011;58477;48.072;11.970;2023-03-21T08:38:08;4.13;;;3.00;;
65206;SDS011;58477;48.072;11.970;2023-03-21T08:40:34;3.40;;;2.60;;
65206;SDS011;58477;48.072;11.970;2023-03-21T08:43:00;7.07;;;3.20;;
65206;SDS011;58477;48.072;11.970;2023-03-21T08:45:26;3.22;;;2.80;;
65206;SDS011;58477;48.072;11.970;2023-03-21T08:47:51;2.75;;;2.55;;
65206;SDS011;58477;48.072;11.970;2023-03-21T08:50:19;4.88;;;2.95;;
65206;SDS011;58477;48.072;11.970;2023-03-21T08:52:47;4.35;;;3.08;;
65206;SDS011;58477;48.072;11.970;2023-03-21T08:55:14;3.10;;;2.80;;
65206;SDS011;58477;48.072;11.970;2023-03-21T08:57:41;4.15;;;2.58;;
65206;SDS011;58477;48.072;11.970;2023-03-21T09:00:08;8.07;;;3.47;;
65206;SDS011;58477;48.072;11.970;2023-03-21T09:02:38;6.20;;;2.97;;
65206;SDS011;58477;48.072;11.970;2023-03-21T09:05:05;7.18;;;3.10;;
65206;SDS011;58477;48.072;11.970;2023-03-21T09:07:31;3.90;;;2.90;;
65206;SDS011;58477;48.072;11.970;2023-03-21T09:10:00;7.40;;;2.72;;
65206;SDS011;58477;48.072;11.970;2023-03-21T09:12:26;5.05;;;2.90;;
65206;SDS011;58477;48.072;11.970;2023-03-21T09:14:52;3.78;;;2.80;;
65206;SDS011;58477;48.072;11.970;2023-03-21T09:17:17;5.20;;;2.90;;
65206;SDS011;58477;48.072;11.970;2023-03-21T09:19:43;3.25;;;2.72;;
65206;SDS011;58477;48.072;11.970;2023-03-21T09:22:11;3.38;;;3.08;;
65206;SDS011;58477;48.072;11.970;2023-03-21T09:24:45;3.40;;;2.83;;
65206;SDS011;58477;48.072;11.970;2023-03-21T09:27:15;4.95;;;2.97;;
65206;SDS011;58477;48.072;11.970;2023-03-21T09:29:49;3.92;;;2.90;;
65206;SDS011;58477;48.072;11.970;2023-03-21T09:32:14;3.42;;;3.03;;
65206;SDS011;58477;48.072;11.970;2023-03-21T09:34:42;4.88;;;2.97;;
65206;SDS011;58477;48.072;11.970;2023-03-21T09:37:08;4.28;;;2.70;;
65206;SDS011;58477;48.072;11.970;2023-03-21T09:39:37;4.65;;;2.95;;
65206;SDS011;58477;48.072;11.970;2023-03-21T09:44:53;3.67;;;2.88;;
65206;SDS011;58477;48.072;11.970;2023-03-21T09:55:23;4.82;;;3.00;;
65206;SDS011;58477;48.072;11.970;2023-03-21T09:58:02;2.80;;;2.60;;
65206;SDS011;58477;48.072;11.970;2023-03-21T10:00:46;3.10;;;2.80;;
65206;SDS011;58477;48.072;11.970;2023-03-21T10:05:49;4.23;;;3.07;;
65206;SDS011;58477;48.072;11.970;2023-03-21T10:08:31;4.68;;;2.80;;
65206;SDS011;58477;48.072;11.970;2023-03-21T10:11:01;4.70;;;2.88;;
65206;SDS011;58477;48.072;11.970;2023-03-21T10:13:34;4.05;;;2.83;;
65206;SDS011;58477;48.072;11.970;2023-03-21T10:16:12;3.30;;;3.00;;
65206;SDS011;58477;48.072;11.970;2023-03-21T10:18:41;5.78;;;2.80;;
65206;SDS011;58477;48.072;11.970;2023-03-21T10:21:07;4.55;;;3.15;;
65206;SDS011;58477;48.072;11.970;2023-03-21T10:23:40;6.50;;;2.88;;
65206;SDS011;58477;48.072;11.970;2023-03-21T10:26:06;3.10;;;2.55;;
65206;SDS011;58477;48.072;11.970;2023-03-21T10:28:34;3.60;;;2.95;;
65206;SDS011;58477;48.072;11.970;2023-03-21T10:31:03;5.10;;;2.97;;
65206;SDS011;58477;48.072;11.970;2023-03-21T10:33:34;4.82;;;2.72;;
65206;SDS011;58477;48.072;11.970;2023-03-21T10:36:07;2.83;;;2.30;;
65206;SDS011;58477;48.072;11.970;2023-03-21T10:38:32;4.57;;;2.90;;
65206;SDS011;58477;48.072;11.970;2023-03-21T10:40:59;3.50;;;2.60;;
65206;SDS011;58477;48.072;11.970;2023-03-21T10:46:06;3.08;;;2.80;;
65206;SDS011;58477;48.072;11.970;2023-03-21T10:48:41;6.05;;;2.65;;
65206;SDS011;58477;48.072;11.970;2023-03-21T10:51:14;3.28;;;2.80;;
65206;SDS011;58477;48.072;11.970;2023-03-21T10:53:59;4.30;;;3.03;;
65206;SDS011;58477;48.072;11.970;2023-03-21T10:56:33;3.30;;;2.97;;
65206;SDS011;58477;48.072;11.970;2023-03-21T10:59:01;3.15;;;2.85;;
65206;SDS011;58477;48.072;11.970;2023-03-21T11:04:05;2.88;;;2.67;;
65206;SDS011;58477;48.072;11.970;2023-03-21T11:06:36;3.42;;;2.83;;
65206;SDS011;58477;48.072;11.970;2023-03-21T11:09:08;4.78;;;3.25;;
65206;SDS011;58477;48.072;11.970;2023-03-21T11:11:40;5.93;;;2.78;;
65206;SDS011;58477;48.072;11.970;2023-03-21T11:14:25;4.85;;;3.00;;
65206;SDS011;58477;48.072;11.970;2023-03-21T11:17:00;3.28;;;2.97;;
65206;SDS011;58477;48.072;11.970;2023-03-21T11:19:30;2.90;;;2.58;;
65206;SDS011;58477;48.072;11.970;2023-03-21T11:21:58;3.67;;;3.00;;
65206;SDS011;58477;48.072;11.970;2023-03-21T11:24:28;3.10;;;2.90;;
65206;SDS011;58477;48.072;11.970;2023-03-21T11:26:55;3.00;;;2.80;;
65206;SDS011;58477;48.072;11.970;2023-03-21T11:29:38;3.25;;;2.53;;
65206;SDS011;58477;48.072;11.970;2023-03-21T11:32:10;2.75;;;2.55;;
65206;SDS011;58477;48.072;11.970;2023-03-21T11:39:45;2.75;;;2.38;;
65206;SDS011;58477;48.072;11.970;2023-03-21T11:42:29;4.00;;;3.08;;
65206;SDS011;58477;48.072;11.970;2023-03-21T11:44:59;4.97;;;2.60;;
65206;SDS011;58477;48.072;11.970;2023-03-21T11:47:26;2.50;;;2.30;;
65206;SDS011;58477;48.072;11.970;2023-03-21T11:49:52;2.58;;;2.38;;
65206;SDS011;58477;48.072;11.970;2023-03-21T11:52:20;3.75;;;2.75;;
65206;SDS011;58477;48.072;11.970;2023-03-21T11:54:59;2.80;;;2.53;;
65206;SDS011;58477;48.072;11.970;2023-03-21T11:57:32;4.73;;;3.10;;
65206;SDS011;58477;48.072;11.970;2023-03-21T12:06:00;6.28;;;2.70;;
65206;SDS011;58477;48.072;11.970;2023-03-21T12:08:30;4.30;;;2.85;;
65206;SDS011;58477;48.072;11.970;2023-03-21T12:11:14;3.00;;;2.80;;
65206;SDS011;58477;48.072;11.970;2023-03-21T12:13:46;4.75;;;3.05;;
65206;SDS011;58477;48.072;11.970;2023-03-21T12:16:39;3.80;;;3.08;;
65206;SDS011;58477;48.072;11.970;2023-03-21T12:25:14;3.60;;;3.30;;
65206;SDS011;58477;48.072;11.970;2023-03-21T12:27:52;4.03;;;3.10;;
65206;SDS011;58477;48.072;11.970;2023-03-21T12:33:35;5.10;;;2.67;;
65206;SDS011;58477;48.072;11.970;2023-03-21T12:39:24;7.75;;;2.78;;
65206;SDS011;58477;48.072;11.970;2023-03-21T12:44:55;3.38;;;3.08;;
65206;SDS011;58477;48.072;11.970;2023-03-21T12:47:26;4.95;;;3.15;;
65206;SDS011;58477;48.072;11.970;2023-03-21T12:49:57;6.70;;;2.70;;
65206;SDS011;58477;48.072;11.970;2023-03-21T12:52:28;2.80;;;2.33;;
65206;SDS011;58477;48.072;11.970;2023-03-21T12:58:00;2.50;;;2.30;;
65206;SDS011;58477;48.072;11.970;2023-03-21T13:00:40;2.58;;;2.30;;
65206;SDS011;58477;48.072;11.970;2023-03-21T13:03:19;3.88;;;2.20;;
65206;SDS011;58477;48.072;11.970;2023-03-21T13:11:11;3.55;;;2.30;;
65206;SDS011;58477;48.072;11.970;2023-03-21T13:16:19;2.78;;;2.33;;
65206;SDS011;58477;48.072;11.970;2023-03-21T13:26:44;4.45;;;2.05;;
65206;SDS011;58477;48.072;11.970;2023-03-21T13:29:21;2.70;;;2.50;;
65206;SDS011;58477;48.072;11.970;2023-03-21T13:31:53;3.72;;;2.22;;
65206;SDS011;58477;48.072;11.970;2023-03-21T13:34:21;2.72;;;2.20;;
65206;SDS011;58477;48.072;11.970;2023-03-21T13:36:48;5.47;;;2.30;;
65206;SDS011;58477;48.072;11.970;2023-03-21T13:39:19;2.47;;;2.20;;
65206;SDS011;58477;48.072;11.970;2023-03-21T13:41:50;3.28;;;2.30;;
65206;SDS011;58477;48.072;11.970;2023-03-21T13:46:53;2.58;;;2.38;;
65206;SDS011;58477;48.072;11.970;2023-03-21T13:51:57;1.75;;;1.40;;
65206;SDS011;58477;48.072;11.970;2023-03-21T13:54:26;1.60;;;1.50;;
65206;SDS011;58477;48.072;11.970;2023-03-21T13:57:13;2.97;;;1.55;;
65206;SDS011;58477;48.072;11.970;2023-03-21T13:59:45;1.08;;;1.05;;
65206;SDS011;58477;48.072;11.970;2023-03-21T14:05:04;1.95;;;1.40;;
65206;SDS011;58477;48.072;11.970;2023-03-21T14:07:41;4.40;;;1.70;;
65206;SDS011;58477;48.072;11.970;2023-03-21T14:12:49;2.60;;;1.20;;
65206;SDS011;58477;48.072;11.970;2023-03-21T14:15:18;1.30;;;1.20;;
65206;SDS011;58477;48.072;11.970;2023-03-21T14:17:50;1.55;;;1.30;;
65206;SDS011;58477;48.072;11.970;2023-03-21T14:20:25;1.50;;;1.00;;
65206;SDS011;58477;48.072;11.970;2023-03-21T14:22:51;1.42;;;1.13;;
65206;SDS011;58477;48.072;11.970;2023-03-21T14:25:18;1.40;;;1.00;;
65206;SDS011;58477;48.072;11.970;2023-03-21T14:27:54;1.90;;;1.10;;
65206;SDS011;58477;48.072;11.970;2023-03-21T14:30:25;0.82;;;0.82;;
65206;SDS011;58477;48.072;11.970;2023-03-21T14:32:57;1.00;;;0.90;;
65206;SDS011;58477;48.072;11.970;2023-03-21T14:35:28;4.72;;;1.02;;
65206;SDS011;58477;48.072;11.970;2023-03-21T14:37:55;0.95;;;0.80;;
65206;SDS011;58477;48.072;11.970;2023-03-21T14:40:26;3.53;;;1.00;;
65206;SDS011;58477;48.072;11.970;2023-03-21T14:42:53;4.85;;;1.10;;
65206;SDS011;58477;48.072;11.970;2023-03-21T14:45:25;4.72;;;1.10;;
65206;SDS011;58477;48.072;11.970;2023-03-21T14:47:57;2.58;;;1.00;;
65206;SDS011;58477;48.072;11.970;2023-03-21T14:50:35;3.10;;;0.98;;
65206;SDS011;58477;48.072;11.970;2023-03-21T14:53:13;4.30;;;1.20;;
65206;SDS011;58477;48.072;11.970;2023-03-21T14:55:46;2.20;;;2.03;;
65206;SDS011;58477;48.072;11.970;2023-03-21T14:58:19;3.33;;;2.30;;
65206;SDS011;58477;48.072;11.970;2023-03-21T15:00:48;5.38;;;2.33;;
65206;SDS011;58477;48.072;11.970;2023-03-21T15:03:15;6.45;;;2.22;;
65206;SDS011;58477;48.072;11.970;2023-03-21T15:05:43;11.75;;;2.42;;
65206;SDS011;58477;48.072;11.970;2023-03-21T15:08:17;4.72;;;2.03;;
65206;SDS011;58477;48.072;11.970;2023-03-21T15:11:03;4.05;;;2.38;;
65206;SDS011;58477;48.072;11.970;2023-03-21T15:13:30;7.50;;;2.67;;
65206;SDS011;58477;48.072;11.970;2023-03-21T15:15:58;3.30;;;2.65;;
65206;SDS011;58477;48.072;11.970;2023-03-21T15:18:28;4.40;;;2.75;;
65206;SDS011;58477;48.072;11.970;2023-03-21T15:21:01;4.28;;;2.60;;
65206;SDS011;58477;48.072;11.970;2023-03-21T15:23:30;4.15;;;2.90;;
65206;SDS011;58477;48.072;11.970;2023-03-21T15:26:02;5.07;;;2.95;;
65206;SDS011;58477;48.072;11.970;2023-03-21T15:28:29;4.13;;;3.00;;
65206;SDS011;58477;48.072;11.970;2023-03-21T15:30:55;4.03;;;3.10;;
65206;SDS011;58477;48.072;11.970;2023-03-21T15:33:22;9.75;;;3.60;;
65206;SDS011;58477;48.072;11.970;2023-03-21T15:35:50;4.88;;;3.33;;
65206;SDS011;58477;48.072;11.970;2023-03-21T15:38:38;4.15;;;3.20;;
65206;SDS011;58477;48.072;11.970;2023-03-21T15:43:44;3.97;;;3.05;;
65206;SDS011;58477;48.072;11.970;2023-03-21T15:46:14;5.28;;;3.35;;
65206;SDS011;58477;48.072;11.970;2023-03-21T15:48:41;3.13;;;2.83;;
65206;SDS011;58477;48.072;11.970;2023-03-21T15:51:10;6.35;;;3.40;;
65206;SDS011;58477;48.072;11.970;2023-03-21T15:53:41;6.88;;;3.03;;
65206;SDS011;58477;48.072;11.970;2023-03-21T15:56:08;4.95;;;3.15;;
65206;SDS011;58477;48.072;11.970;2023-03-21T15:58:44;6.90;;;3.13;;
65206;SDS011;58477;48.072;11.970;2023-03-21T16:01:15;11.38;;;3.05;;
65206;SDS011;58477;48.072;11.970;2023-03-21T16:03:45;3.30;;;3.00;;
65206;SDS011;58477;48.072;11.970;2023-03-21T16:08:51;5.40;;;3.33;;
65206;SDS011;58477;48.072;11.970;2023-03-21T16:11:27;5.07;;;2.60;;
65206;SDS011;58477;48.072;11.970;2023-03-21T16:14:07;4.07;;;2.95;;
65206;SDS011;58477;48.072;11.970;2023-03-21T16:16:35;3.60;;;2.55;;
65206;SDS011;58477;48.072;11.970;2023-03-21T16:19:00;4.57;;;3.10;;
65206;SDS011;58477;48.072;11.970;2023-03-21T16:21:27;4.38;;;3.08;;
65206;SDS011;58477;48.072;11.970;2023-03-21T16:23:54;6.00;;;3.13;;
65206;SDS011;58477;48.072;11.970;2023-03-21T16:26:21;3.40;;;3.10;;
65206;SDS011;58477;48.072;11.970;2023-03-21T16:28:49;4.07;;;3.42;;
65206;SDS011;58477;48.072;11.970;2023-03-21T16:31:19;8.75;;;3.35;;
65206;SDS011;58477;48.072;11.970;2023-03-21T16:33:49;3.15;;;2.88;;
65206;SDS011;58477;48.072;11.970;2023-03-21T16:36:16;6.35;;;3.38;;
65206;SDS011;58477;48.072;11.970;2023-03-21T16:38:44;6.07;;;4.28;;
65206;SDS011;58477;48.072;11.970;2023-03-21T16:41:10;5.05;;;3.42;;